Time;durP1;ratioP1;P1;durP2;ratioP2;P2;SDS_P1;SDS_P2;PMS_P1;PMS_P2;Temp;Humidity;BMP_temperature;BMP_pressure;BME280_temperature;BME280_humidity;BME280_pressure;Samples;Min_cycle;Max_cycle;Signal;HPM_P1;HPM_P2
2022/01/31 00:00:54;;;;;;;20.23;2.40;;;6.60;71.00;;;;;;5060897;28;20491;-68
2022/01/31 00:03:20;;;;;;;16.90;3.30;;;6.60;71.70;;;;;;5068282;28;20051;-67
2022/01/31 00:05:47;;;;;;;16.00;2.65;;;6.70;71.70;;;;;;5066593;28;20054;-69
2022/01/31 00:08:14;;;;;;;20.52;2.88;;;6.60;71.40;;;;;;5063860;28;20032;-73
2022/01/31 00:10:40;;;;;;;13.57;2.70;;;6.60;72.40;;;;;;5068160;28;20028;-72
2022/01/31 00:13:13;;;;;;;15.90;2.88;;;6.60;71.80;;;;;;5067165;28;20043;-71
2022/01/31 00:15:42;;;;;;;15.65;2.80;;;6.60;72.10;;;;;;5067703;28;20038;-71
2022/01/31 00:18:08;;;;;;;28.08;5.15;;;6.70;72.30;;;;;;5068786;28;20024;-71
2022/01/31 00:20:36;;;;;;;19.92;3.92;;;6.60;71.60;;;;;;5065962;28;20036;-71
2022/01/31 00:23:01;;;;;;;28.38;4.38;;;6.60;71.70;;;;;;5065555;28;20470;-71
2022/01/31 00:25:27;;;;;;;18.02;3.00;;;6.60;71.70;;;;;;5067502;28;20032;-71
2022/01/31 00:27:53;;;;;;;14.50;2.38;;;6.60;72.00;;;;;;5068811;28;20036;-73
2022/01/31 00:30:19;;;;;;;14.15;2.50;;;6.60;72.20;;;;;;5073681;28;20036;-73
2022/01/31 00:32:44;;;;;;;10.70;2.55;;;6.70;72.50;;;;;;5065585;28;20031;-74
2022/01/31 00:35:11;;;;;;;25.98;2.95;;;6.70;72.30;;;;;;5051684;28;20031;-73
2022/01/31 00:37:37;;;;;;;19.38;3.08;;;6.70;71.00;;;;;;5065151;28;20016;-73
2022/01/31 00:40:07;;;;;;;11.88;2.53;;;6.70;71.30;;;;;;5067794;28;20039;-73
2022/01/31 00:42:33;;;;;;;18.60;2.53;;;6.70;71.80;;;;;;5066191;28;20153;-73
2022/01/31 00:45:11;;;;;;;22.27;2.50;;;6.70;71.20;;;;;;5058534;28;20907;-73
2022/01/31 00:47:40;;;;;;;19.55;2.95;;;6.70;71.00;;;;;;5054551;28;20024;-73
2022/01/31 00:50:12;;;;;;;15.45;2.58;;;6.70;71.30;;;;;;5055016;28;20020;-70
2022/01/31 00:52:41;;;;;;;11.63;2.38;;;6.70;71.30;;;;;;5039047;28;20033;-72
2022/01/31 00:55:09;;;;;;;17.02;2.45;;;6.70;71.60;;;;;;5052697;28;20024;-71
2022/01/31 00:57:35;;;;;;;19.88;3.00;;;6.70;71.40;;;;;;5052556;28;20480;-72
2022/01/31 01:00:02;;;;;;;18.48;3.83;;;6.70;71.00;;;;;;5051882;28;20031;-72
2022/01/31 01:02:30;;;;;;;18.25;2.85;;;6.70;71.60;;;;;;5050829;28;20050;-72
2022/01/31 01:04:56;;;;;;;20.42;3.20;;;6.70;71.20;;;;;;5056527;28;20064;-70
2022/01/31 01:07:22;;;;;;;13.90;2.42;;;6.60;70.80;;;;;;5051625;28;20024;-74
2022/01/31 01:09:49;;;;;;;17.02;2.60;;;6.60;70.80;;;;;;5033439;28;20037;-69
2022/01/31 01:12:17;;;;;;;15.52;2.97;;;6.60;71.10;;;;;;5053424;28;20047;-69
2022/01/31 01:14:44;;;;;;;18.65;2.80;;;6.60;71.10;;;;;;5048270;28;20029;-69
2022/01/31 01:17:10;;;;;;;15.57;2.33;;;6.60;71.10;;;;;;5053670;28;20025;-68
2022/01/31 01:19:36;;;;;;;9.85;1.75;;;6.60;70.40;;;;;;5051234;28;20056;-69
2022/01/31 01:22:03;;;;;;;16.83;2.90;;;6.60;70.50;;;;;;5054428;28;20027;-69
2022/01/31 01:24:29;;;;;;;20.45;2.78;;;6.60;70.90;;;;;;5050754;28;20124;-72
2022/01/31 01:26:56;;;;;;;17.48;2.35;;;6.60;70.80;;;;;;5054705;28;20124;-69
2022/01/31 01:29:24;;;;;;;16.20;3.17;;;6.60;70.90;;;;;;5053047;28;20048;-69
2022/01/31 01:31:51;;;;;;;14.73;2.90;;;6.60;70.60;;;;;;5049263;28;20580;-70
2022/01/31 01:34:23;;;;;;;13.73;2.65;;;6.60;70.90;;;;;;5054665;28;20024;-69
2022/01/31 01:36:53;;;;;;;8.15;2.30;;;6.60;71.00;;;;;;5056320;28;20535;-69
2022/01/31 01:39:19;;;;;;;24.85;3.38;;;6.60;70.90;;;;;;5053806;28;20021;-69
2022/01/31 01:41:46;;;;;;;15.20;2.72;;;6.60;70.60;;;;;;5052597;28;20078;-72
2022/01/31 01:44:12;;;;;;;13.20;2.33;;;6.60;70.80;;;;;;5051149;28;20024;-70
2022/01/31 01:46:38;;;;;;;15.27;2.70;;;6.60;70.90;;;;;;5051319;28;20029;-70
2022/01/31 01:49:04;;;;;;;13.55;2.42;;;6.60;70.20;;;;;;5051859;28;20044;-71
2022/01/31 01:51:30;;;;;;;18.95;3.28;;;6.60;71.00;;;;;;5052758;28;20094;-71
2022/01/31 01:53:59;;;;;;;10.27;1.92;;;6.60;71.40;;;;;;5054151;28;20028;-72
2022/01/31 01:56:27;;;;;;;15.02;2.75;;;6.60;70.60;;;;;;5049539;28;20029;-71
2022/01/31 01:58:53;;;;;;;15.18;3.10;;;6.60;69.80;;;;;;5052857;28;20612;-70
2022/01/31 02:01:19;;;;;;;19.50;3.67;;;6.50;70.60;;;;;;5047758;28;20020;-70
2022/01/31 02:03:52;;;;;;;18.02;4.07;;;6.50;70.10;;;;;;5054090;28;20021;-70
2022/01/31 02:06:22;;;;;;;12.57;2.42;;;6.50;70.70;;;;;;5053947;28;20029;-70
2022/01/31 02:08:48;;;;;;;13.55;2.38;;;6.50;70.50;;;;;;5049397;28;20029;-73
2022/01/31 02:11:20;;;;;;;18.52;3.45;;;6.40;71.20;;;;;;5051345;28;20032;-70
2022/01/31 02:13:48;;;;;;;16.75;2.60;;;6.50;70.90;;;;;;5050563;28;20060;-70
2022/01/31 02:16:17;;;;;;;14.20;2.72;;;6.50;71.00;;;;;;5054681;28;20067;-71
2022/01/31 02:18:55;;;;;;;13.82;2.25;;;6.50;70.80;;;;;;5050923;28;20452;-72
2022/01/31 02:21:40;;;;;;;27.58;3.15;;;6.50;70.80;;;;;;5050315;28;20038;-71
2022/01/31 02:24:35;;;;;;;13.95;2.38;;;6.50;69.90;;;;;;5050066;28;20132;-72
2022/01/31 02:27:26;;;;;;;16.20;2.58;;;6.50;70.70;;;;;;5046463;28;20139;-71
2022/01/31 02:29:51;;;;;;;13.65;2.83;;;6.40;71.00;;;;;;5052970;28;20028;-71
2022/01/31 02:32:20;;;;;;;17.90;3.92;;;6.40;70.50;;;;;;5050149;28;20071;-72
2022/01/31 02:34:48;;;;;;;18.48;2.97;;;6.40;70.50;;;;;;5049517;28;20032;-72
2022/01/31 02:37:13;;;;;;;22.70;4.28;;;6.40;70.80;;;;;;5050609;28;20032;-69
2022/01/31 02:39:40;;;;;;;19.17;2.78;;;6.40;71.20;;;;;;5043787;28;20110;-70
2022/01/31 02:42:06;;;;;;;12.63;2.20;;;6.30;72.00;;;;;;5051273;28;20066;-71
2022/01/31 02:44:33;;;;;;;27.40;3.17;;;6.30;71.30;;;;;;5049914;28;20036;-70
2022/01/31 02:50:07;;;;;;;18.08;2.50;;;6.30;71.40;;;;;;5038032;28;20051;-71
2022/01/31 02:52:36;;;;;;;29.52;3.67;;;6.30;71.70;;;;;;5049826;28;20032;-71
2022/01/31 02:55:05;;;;;;;25.58;3.58;;;6.30;70.90;;;;;;5051739;28;20112;-71
2022/01/31 02:57:31;;;;;;;18.77;3.30;;;6.30;71.80;;;;;;5048762;28;20501;-71
2022/01/31 02:59:56;;;;;;;21.45;3.20;;;6.20;70.90;;;;;;5052917;28;20115;-71
2022/01/31 03:02:26;;;;;;;20.98;3.72;;;6.20;71.30;;;;;;5047802;28;20024;-71
2022/01/31 03:04:52;;;;;;;11.38;2.13;;;6.20;71.50;;;;;;5033429;28;20056;-71
2022/01/31 03:07:18;;;;;;;18.17;2.80;;;6.20;71.60;;;;;;5048856;28;20461;-71
2022/01/31 03:09:43;;;;;;;21.90;3.45;;;6.20;72.10;;;;;;5051320;28;20029;-71
2022/01/31 03:12:19;;;;;;;11.77;2.30;;;6.20;70.90;;;;;;5034399;28;20021;-71
2022/01/31 03:14:49;;;;;;;19.38;2.60;;;6.20;71.10;;;;;;5050352;28;20025;-71
2022/01/31 03:17:40;;;;;;;30.45;10.77;;;6.10;71.80;;;;;;5049593;28;20032;-71
2022/01/31 03:20:07;;;;;;;30.10;9.80;;;6.20;70.80;;;;;;5049157;28;20107;-71
2022/01/31 03:22:33;;;;;;;29.10;8.48;;;6.20;71.30;;;;;;5033226;28;20033;-71
2022/01/31 03:25:00;;;;;;;25.88;7.03;;;6.10;71.80;;;;;;5049067;28;20135;-71
2022/01/31 03:27:26;;;;;;;19.75;4.35;;;6.10;72.00;;;;;;5050845;28;20198;-71
2022/01/31 03:29:52;;;;;;;18.67;3.75;;;6.10;71.50;;;;;;5052913;28;20150;-71
2022/01/31 03:32:18;;;;;;;21.42;4.28;;;6.10;71.70;;;;;;5050970;28;20055;-71
2022/01/31 03:34:45;;;;;;;20.70;4.20;;;6.10;71.10;;;;;;5047213;28;20025;-71
2022/01/31 03:37:11;;;;;;;29.60;3.92;;;6.00;71.10;;;;;;5052116;28;20055;-71
2022/01/31 03:39:37;;;;;;;12.07;2.90;;;6.00;71.80;;;;;;5048513;28;20029;-71
2022/01/31 03:42:03;;;;;;;14.88;2.50;;;5.90;71.30;;;;;;5035303;28;20028;-71
2022/01/31 03:44:30;;;;;;;17.27;2.67;;;5.80;72.20;;;;;;5048749;28;20761;-71
2022/01/31 03:46:59;;;;;;;15.65;2.72;;;5.80;72.60;;;;;;5032294;28;20070;-71
2022/01/31 03:49:25;;;;;;;18.38;2.90;;;5.80;72.20;;;;;;5048202;28;20040;-71
2022/01/31 03:51:57;;;;;;;17.85;3.70;;;5.80;72.50;;;;;;5034915;28;20052;-71
2022/01/31 03:54:37;;;;;;;12.27;2.40;;;5.80;72.10;;;;;;5048552;28;20025;-71
2022/01/31 03:57:03;;;;;;;19.92;3.97;;;5.70;72.90;;;;;;5048415;28;20078;-71
2022/01/31 03:59:39;;;;;;;17.85;3.20;;;5.70;72.50;;;;;;5048270;28;20116;-71
2022/01/31 04:02:07;;;;;;;23.90;2.95;;;5.70;71.70;;;;;;5044496;28;20040;-71
2022/01/31 04:04:36;;;;;;;25.15;3.80;;;5.70;72.20;;;;;;5045976;28;20041;-71
2022/01/31 04:07:02;;;;;;;16.98;2.58;;;5.60;72.10;;;;;;5050072;28;20037;-71
2022/01/31 04:09:28;;;;;;;20.80;3.03;;;5.50;72.70;;;;;;5050976;28;20036;-71
2022/01/31 04:11:54;;;;;;;15.10;3.00;;;5.40;73.60;;;;;;5053811;28;20036;-71
2022/01/31 04:14:20;;;;;;;11.02;2.15;;;5.40;74.20;;;;;;5051362;28;20040;-71
2022/01/31 04:16:46;;;;;;;10.25;2.88;;;5.40;74.30;;;;;;5051453;28;20041;-71
2022/01/31 04:19:11;;;;;;;8.32;2.17;;;5.40;74.60;;;;;;5054240;28;20033;-71
2022/01/31 04:21:37;;;;;;;22.20;2.90;;;5.40;74.50;;;;;;5054799;28;20037;-71
2022/01/31 04:24:03;;;;;;;16.17;2.85;;;5.40;74.30;;;;;;5058309;28;20042;-71
2022/01/31 04:26:33;;;;;;;15.75;3.17;;;5.40;74.10;;;;;;5054358;28;20881;-71
2022/01/31 04:29:09;;;;;;;17.70;2.85;;;5.40;74.90;;;;;;5057401;28;20025;-71
2022/01/31 04:31:44;;;;;;;28.13;3.40;;;5.40;74.80;;;;;;5053308;28;20032;-72
2022/01/31 04:34:10;;;;;;;18.10;2.70;;;5.40;74.20;;;;;;5055307;28;20047;-71
2022/01/31 04:36:36;;;;;;;21.48;2.92;;;5.40;74.80;;;;;;5054938;28;20028;-71
2022/01/31 04:39:03;;;;;;;19.10;3.78;;;5.40;74.80;;;;;;5054334;28;20051;-71
2022/01/31 04:41:29;;;;;;;26.30;3.80;;;5.40;74.20;;;;;;5053464;28;20869;-71
2022/01/31 04:43:59;;;;;;;21.35;3.60;;;5.40;74.20;;;;;;5056506;28;20037;-71
2022/01/31 04:46:25;;;;;;;20.30;3.45;;;5.40;74.50;;;;;;5053185;28;20086;-71
2022/01/31 04:48:51;;;;;;;25.83;3.47;;;5.40;73.80;;;;;;5056318;28;20046;-71
2022/01/31 04:51:16;;;;;;;17.98;2.80;;;5.30;73.40;;;;;;5054270;28;20036;-71
2022/01/31 04:53:42;;;;;;;15.50;2.72;;;5.20;74.90;;;;;;5053900;28;20099;-71
2022/01/31 04:56:08;;;;;;;23.80;3.75;;;5.20;74.70;;;;;;5056305;28;20665;-71
2022/01/31 04:58:33;;;;;;;18.00;2.72;;;5.20;74.70;;;;;;5054112;28;20032;-71
2022/01/31 05:01:00;;;;;;;23.30;3.33;;;5.20;74.40;;;;;;5056656;28;20046;-71
2022/01/31 05:03:26;;;;;;;20.30;3.28;;;5.20;74.30;;;;;;5053509;28;20040;-71
2022/01/31 05:05:52;;;;;;;17.45;3.08;;;5.20;74.20;;;;;;5054697;28;20441;-71
2022/01/31 05:08:20;;;;;;;21.80;3.75;;;5.10;74.30;;;;;;5053074;28;20148;-71
2022/01/31 05:10:49;;;;;;;18.05;3.50;;;5.10;74.20;;;;;;5053428;28;20044;-71
2022/01/31 05:13:16;;;;;;;17.83;3.08;;;5.10;74.40;;;;;;5054354;28;20549;-71
2022/01/31 05:15:43;;;;;;;18.20;3.22;;;5.00;74.70;;;;;;5053203;28;20041;-71
2022/01/31 05:18:09;;;;;;;22.25;3.85;;;4.90;75.20;;;;;;5050509;28;20037;-71
2022/01/31 05:20:35;;;;;;;15.25;2.63;;;4.90;74.80;;;;;;5053041;28;20048;-71
2022/01/31 05:23:01;;;;;;;19.27;2.92;;;4.90;74.40;;;;;;5055948;28;20392;-71
2022/01/31 05:25:27;;;;;;;25.10;4.47;;;4.90;75.50;;;;;;5053432;28;20033;-71
2022/01/31 05:27:52;;;;;;;15.60;3.60;;;4.90;74.80;;;;;;5053812;28;20083;-71
2022/01/31 05:30:19;;;;;;;19.35;3.40;;;4.90;74.80;;;;;;5056693;28;20020;-71
2022/01/31 05:32:45;;;;;;;13.57;2.85;;;4.90;74.50;;;;;;5052084;28;20068;-71
2022/01/31 05:35:11;;;;;;;16.15;2.88;;;5.00;74.80;;;;;;5057847;28;20051;-71
2022/01/31 05:37:37;;;;;;;22.92;3.05;;;5.00;74.60;;;;;;5054147;28;20033;-71
2022/01/31 05:40:04;;;;;;;22.27;4.10;;;5.00;73.70;;;;;;5051598;28;20076;-71
2022/01/31 05:42:30;;;;;;;23.05;3.53;;;4.90;74.00;;;;;;5052318;28;20048;-71
2022/01/31 05:44:55;;;;;;;20.83;3.42;;;4.80;74.40;;;;;;5053440;28;20071;-71
2022/01/31 05:47:21;;;;;;;14.10;2.28;;;4.80;74.50;;;;;;5055003;28;20075;-71
2022/01/31 05:49:47;;;;;;;21.20;3.42;;;4.80;75.10;;;;;;5054686;28;20750;-71
2022/01/31 05:52:12;;;;;;;15.30;2.95;;;4.80;74.50;;;;;;5051695;28;20047;-71
2022/01/31 05:54:39;;;;;;;33.20;3.90;;;4.70;74.40;;;;;;5047116;28;20670;-71
2022/01/31 05:57:06;;;;;;;23.90;3.20;;;4.80;74.50;;;;;;5054260;28;20074;-71
2022/01/31 05:59:33;;;;;;;26.52;4.07;;;4.80;74.00;;;;;;5053220;28;20037;-71
2022/01/31 06:02:00;;;;;;;20.58;3.33;;;4.80;73.80;;;;;;5055000;28;20515;-71
2022/01/31 06:04:26;;;;;;;27.67;3.10;;;4.70;74.20;;;;;;5051191;28;20435;-71
2022/01/31 06:06:52;;;;;;;24.38;3.33;;;4.60;74.50;;;;;;5051944;28;20064;-71
2022/01/31 06:09:17;;;;;;;17.13;2.80;;;4.60;74.20;;;;;;5052604;28;20736;-71
2022/01/31 06:11:45;;;;;;;22.92;2.83;;;4.60;74.30;;;;;;5052669;28;20025;-72
2022/01/31 06:14:10;;;;;;;19.58;3.45;;;4.60;75.20;;;;;;5052513;28;20549;-71
2022/01/31 06:16:36;;;;;;;22.10;2.92;;;4.70;74.60;;;;;;5051885;28;20108;-71
2022/01/31 06:19:03;;;;;;;19.90;3.47;;;4.70;74.80;;;;;;5055226;28;20051;-72
2022/01/31 06:21:28;;;;;;;14.82;2.42;;;4.70;74.70;;;;;;5050098;28;20021;-71
2022/01/31 06:23:54;;;;;;;18.92;3.13;;;4.80;74.60;;;;;;5051914;28;20475;-72
2022/01/31 06:26:21;;;;;;;21.08;3.47;;;4.80;74.50;;;;;;5045094;28;20032;-71
2022/01/31 06:28:56;;;;;;;17.33;3.00;;;4.80;74.50;;;;;;5051443;28;20032;-71
2022/01/31 06:31:30;;;;;;;20.80;3.50;;;4.90;74.40;;;;;;5049770;28;20713;-72
2022/01/31 06:33:57;;;;;;;14.00;2.50;;;4.90;74.30;;;;;;5050812;28;20143;-71
2022/01/31 06:36:23;;;;;;;27.90;2.95;;;4.90;73.80;;;;;;5053535;28;20032;-71
2022/01/31 06:38:52;;;;;;;14.85;2.88;;;4.90;74.10;;;;;;5054094;28;20669;-71
2022/01/31 06:41:19;;;;;;;23.17;3.65;;;4.90;74.20;;;;;;5046915;28;20044;-71
2022/01/31 06:43:47;;;;;;;16.98;2.88;;;4.90;74.40;;;;;;5051134;28;20033;-71
2022/01/31 06:46:14;;;;;;;22.85;3.90;;;4.90;74.30;;;;;;5051783;28;20169;-72
2022/01/31 06:48:40;;;;;;;17.15;2.55;;;4.90;74.30;;;;;;5051791;28;20108;-71
2022/01/31 06:51:06;;;;;;;12.90;2.53;;;5.00;73.90;;;;;;5053894;28;20039;-71
2022/01/31 06:53:33;;;;;;;24.02;3.58;;;4.90;74.30;;;;;;5047057;28;20025;-71
2022/01/31 06:55:59;;;;;;;19.90;2.95;;;5.00;72.70;;;;;;5053486;28;20054;-71
2022/01/31 06:58:25;;;;;;;24.25;3.20;;;5.00;72.80;;;;;;5050642;28;20032;-71
2022/01/31 07:00:51;;;;;;;25.88;4.35;;;4.90;73.00;;;;;;5052361;28;20048;-71
2022/01/31 07:03:17;;;;;;;21.15;3.75;;;4.90;72.30;;;;;;5051868;28;20025;-71
2022/01/31 07:05:43;;;;;;;23.45;3.17;;;4.90;72.70;;;;;;5049894;28;20336;-72
2022/01/31 07:08:10;;;;;;;12.90;2.90;;;4.80;74.10;;;;;;5053620;28;20103;-71
2022/01/31 07:10:37;;;;;;;26.23;5.38;;;4.80;74.80;;;;;;5050043;28;20598;-71
2022/01/31 07:13:12;;;;;;;26.13;3.85;;;4.80;73.40;;;;;;5054277;28;20028;-71
2022/01/31 07:15:39;;;;;;;25.48;4.63;;;4.80;73.20;;;;;;5048715;28;20035;-71
2022/01/31 07:18:04;;;;;;;26.45;3.53;;;4.70;74.10;;;;;;5052492;28;20078;-72
2022/01/31 07:20:39;;;;;;;15.18;3.30;;;4.80;73.50;;;;;;5052896;28;20033;-71
2022/01/31 07:23:29;;;;;;;22.77;3.20;;;4.80;74.10;;;;;;5049970;28;20040;-71
2022/01/31 07:25:52;;;;;;;;;;;4.80;72.90;;;;;;5051642;28;20053;-71
2022/01/31 07:28:19;;;;;;;24.63;3.23;;;4.80;73.70;;;;;;5052362;28;19918;-71
2022/01/31 07:30:50;;;;;;;22.60;2.90;;;4.80;73.20;;;;;;5050179;28;20041;-72
2022/01/31 07:33:17;;;;;;;22.85;3.20;;;4.80;73.50;;;;;;5053601;28;20029;-71
2022/01/31 07:35:45;;;;;;;19.20;3.65;;;4.80;73.40;;;;;;5051092;28;20021;-71
2022/01/31 07:38:11;;;;;;;21.50;3.38;;;4.80;73.20;;;;;;5052530;28;20047;-71
2022/01/31 07:40:37;;;;;;;28.23;3.55;;;4.80;74.20;;;;;;5049915;28;20064;-72
2022/01/31 07:43:04;;;;;;;24.92;5.13;;;4.90;73.30;;;;;;5052130;28;20071;-72
2022/01/31 07:45:30;;;;;;;22.85;4.18;;;4.90;73.00;;;;;;5048489;28;20078;-71
2022/01/31 07:47:56;;;;;;;20.27;3.50;;;4.90;73.60;;;;;;5051485;28;20102;-71
2022/01/31 07:50:22;;;;;;;26.73;4.43;;;4.90;73.50;;;;;;5049779;28;20036;-71
2022/01/31 07:52:48;;;;;;;23.92;3.88;;;4.90;73.30;;;;;;5049498;28;20033;-70
2022/01/31 07:55:13;;;;;;;19.95;5.05;;;4.90;73.90;;;;;;5056319;28;20032;-72
2022/01/31 07:57:45;;;;;;;23.15;4.50;;;4.90;73.40;;;;;;5054075;28;20021;-71
2022/01/31 08:00:12;;;;;;;18.20;3.80;;;4.90;73.30;;;;;;5055743;28;20029;-71
2022/01/31 08:02:41;;;;;;;16.17;3.55;;;4.90;74.40;;;;;;5055126;28;20447;-70
2022/01/31 08:05:09;;;;;;;20.98;3.78;;;4.90;75.00;;;;;;5055860;28;20035;-70
2022/01/31 08:07:35;;;;;;;17.67;3.05;;;5.00;74.60;;;;;;5055209;28;20051;-72
2022/01/31 08:10:03;;;;;;;18.92;3.25;;;5.00;74.00;;;;;;5054708;28;20134;-72
2022/01/31 08:12:29;;;;;;;22.17;4.43;;;5.00;74.40;;;;;;5052315;28;20036;-72
2022/01/31 08:15:01;;;;;;;23.08;4.07;;;5.10;74.10;;;;;;5056379;28;20033;-69
2022/01/31 08:17:27;;;;;;;24.10;4.13;;;5.10;73.60;;;;;;5050310;28;20047;-71
2022/01/31 08:19:53;;;;;;;26.48;5.00;;;5.20;73.60;;;;;;5058185;28;20048;-71
2022/01/31 08:22:19;;;;;;;23.35;3.35;;;5.30;73.00;;;;;;5051348;28;20052;-72
2022/01/31 08:24:44;;;;;;;17.30;3.53;;;5.20;72.80;;;;;;5054797;28;20036;-72
2022/01/31 08:27:10;;;;;;;17.50;3.22;;;5.30;72.80;;;;;;5057293;28;20044;-72
2022/01/31 08:29:38;;;;;;;24.10;3.30;;;5.30;72.30;;;;;;5053991;28;20816;-72
2022/01/31 08:32:09;;;;;;;23.52;4.18;;;5.30;73.20;;;;;;5057476;28;20044;-69
2022/01/31 08:37:20;;;;;;;27.17;3.85;;;5.30;73.50;;;;;;5050231;28;20109;-71
2022/01/31 08:39:46;;;;;;;12.07;2.97;;;5.30;72.30;;;;;;5055954;28;20188;-72
2022/01/31 08:42:11;;;;;;;18.83;3.78;;;5.40;72.80;;;;;;5053319;28;20071;-69
2022/01/31 08:44:37;;;;;;;28.98;5.55;;;5.40;72.40;;;;;;5052449;28;20060;-71
2022/01/31 08:47:04;;;;;;;21.60;3.83;;;5.50;72.50;;;;;;5055124;28;20087;-71
2022/01/31 08:49:33;;;;;;;16.52;3.10;;;5.50;73.30;;;;;;5055508;28;20431;-71
2022/01/31 08:51:59;;;;;;;23.98;3.40;;;5.50;72.30;;;;;;5056572;28;20047;-67
2022/01/31 08:54:25;;;;;;;23.40;3.63;;;5.60;71.40;;;;;;5051921;28;20036;-68
2022/01/31 08:56:51;;;;;;;12.23;2.85;;;5.60;71.40;;;;;;5054441;28;20032;-69
2022/01/31 09:00:34;;;;;;;17.02;3.67;;;5.60;71.60;;;;;;5085647;27;20421;-69
2022/01/31 09:05:37;;;;;;;22.13;3.65;;;5.60;71.60;;;;;;5054891;28;20126;-70
2022/01/31 09:08:03;;;;;;;13.23;2.95;;;5.60;71.40;;;;;;5053541;28;20386;-69
2022/01/31 09:10:29;;;;;;;24.45;3.63;;;5.60;72.40;;;;;;5050604;28;20477;-69
2022/01/31 09:12:54;;;;;;;27.13;3.63;;;5.60;72.40;;;;;;5055293;28;20048;-69
2022/01/31 09:15:20;;;;;;;20.25;3.65;;;5.70;72.30;;;;;;5052862;28;20052;-69
2022/01/31 09:17:46;;;;;;;17.95;4.30;;;5.70;71.50;;;;;;5055711;28;20040;-69
2022/01/31 09:20:11;;;;;;;20.15;3.22;;;5.80;70.90;;;;;;5057160;28;20380;-69
2022/01/31 09:22:37;;;;;;;27.88;3.63;;;5.80;71.00;;;;;;5053111;28;20115;-65
2022/01/31 09:25:04;;;;;;;24.42;3.95;;;5.80;71.70;;;;;;5053458;28;20033;-69
2022/01/31 09:27:29;;;;;;;16.60;3.08;;;5.80;71.80;;;;;;5052904;28;20171;-69
2022/01/31 09:29:56;;;;;;;24.30;4.07;;;5.80;71.60;;;;;;5051740;28;20555;-69
2022/01/31 09:32:24;;;;;;;19.27;3.47;;;5.90;71.30;;;;;;5054754;28;20047;-69
2022/01/31 09:34:51;;;;;;;23.15;3.90;;;6.00;71.00;;;;;;5058024;28;20085;-70
2022/01/31 09:37:20;;;;;;;18.98;3.38;;;5.90;70.60;;;;;;5050397;28;20029;-70
2022/01/31 09:39:48;;;;;;;18.33;3.63;;;5.90;71.50;;;;;;5054065;28;20033;-70
2022/01/31 09:42:22;;;;;;;17.80;4.28;;;5.90;71.90;;;;;;5052046;28;20025;-68
2022/01/31 09:45:07;;;;;;;17.08;3.63;;;6.00;71.90;;;;;;5055221;28;20055;-69
2022/01/31 09:50:18;;;;;;;13.23;3.25;;;6.10;70.60;;;;;;5054586;28;20051;-69
2022/01/31 09:52:43;;;;;;;15.43;3.75;;;6.20;70.50;;;;;;5053987;28;20029;-69
2022/01/31 09:55:09;;;;;;;16.42;3.13;;;6.10;71.20;;;;;;5056578;28;20055;-69
2022/01/31 09:57:35;;;;;;;16.38;3.35;;;6.30;70.10;;;;;;5052795;28;20044;-69
2022/01/31 10:00:01;;;;;;;15.68;2.90;;;6.30;70.10;;;;;;5051684;28;20021;-70
2022/01/31 10:02:26;;;;;;;24.25;3.78;;;6.30;71.20;;;;;;5054889;28;20557;-68
2022/01/31 10:04:52;;;;;;;21.25;3.55;;;6.40;71.00;;;;;;5057857;28;20129;-70
2022/01/31 10:07:20;;;;;;;22.48;3.60;;;6.50;69.70;;;;;;5053458;28;20024;-69
2022/01/31 10:09:48;;;;;;;22.17;3.42;;;6.50;69.90;;;;;;5052139;28;20078;-69
2022/01/31 10:17:44;;;;;;;12.50;2.90;;;6.50;70.90;;;;;;5037791;28;20076;-69
2022/01/31 10:20:18;;;;;;;19.05;3.03;;;6.50;70.40;;;;;;5042080;28;20427;-69
2022/01/31 10:22:44;;;;;;;13.75;3.05;;;6.60;69.20;;;;;;5039321;28;20037;-70
2022/01/31 10:25:14;;;;;;;19.52;3.15;;;6.60;70.10;;;;;;5039511;28;20039;-70
2022/01/31 10:27:46;;;;;;;27.20;4.68;;;6.60;70.60;;;;;;5039702;28;20041;-69
2022/01/31 10:30:15;;;;;;;22.65;3.08;;;6.70;69.80;;;;;;5038071;28;20033;-70
2022/01/31 10:32:49;;;;;;;20.08;3.75;;;6.70;68.90;;;;;;5040815;28;20025;-71
2022/01/31 10:35:18;;;;;;;16.27;3.35;;;6.70;69.80;;;;;;5034755;28;20179;-71
2022/01/31 10:37:46;;;;;;;18.15;3.70;;;6.60;70.60;;;;;;5043330;28;20060;-71
2022/01/31 10:53:45;;;;;;;16.25;3.13;;;6.90;70.30;;;;;;5037471;28;20401;-73
2022/01/31 10:56:11;;;;;;;24.05;4.15;;;6.90;69.80;;;;;;5039446;28;20029;-76
2022/01/31 10:58:55;;;;;;;20.10;4.78;;;7.00;70.10;;;;;;5037167;28;20064;-68
2022/01/31 11:01:21;;;;;;;14.00;3.50;;;7.00;70.90;;;;;;5035820;28;20033;-70
2022/01/31 11:03:47;;;;;;;11.75;3.38;;;7.00;70.20;;;;;;5040464;28;20033;-71
2022/01/31 11:06:13;;;;;;;18.90;3.58;;;6.90;70.60;;;;;;5033905;28;20584;-70
2022/01/31 11:08:40;;;;;;;13.07;2.78;;;6.90;71.40;;;;;;5041433;28;20112;-65
2022/01/31 11:11:06;;;;;;;15.23;3.25;;;6.90;72.70;;;;;;5038357;28;20037;-68
2022/01/31 11:13:34;;;;;;;18.98;3.13;;;6.90;73.00;;;;;;5039092;28;20041;-70
2022/01/31 11:16:00;;;;;;;10.60;3.08;;;6.90;72.00;;;;;;5039855;28;20419;-67
2022/01/31 11:18:31;;;;;;;12.70;3.05;;;6.90;74.00;;;;;;5033834;28;20025;-68
2022/01/31 11:21:17;;;;;;;10.55;2.70;;;6.90;73.10;;;;;;5040878;28;20041;-68
2022/01/31 11:23:50;;;;;;;11.48;3.00;;;6.70;75.70;;;;;;5035627;28;20044;-69
2022/01/31 11:26:18;;;;;;;17.33;4.07;;;6.80;74.30;;;;;;5037040;28;20037;-69
2022/01/31 11:28:46;;;;;;;14.98;3.53;;;6.70;74.90;;;;;;5037940;28;20071;-68
2022/01/31 11:31:12;;;;;;;14.75;3.28;;;6.70;75.90;;;;;;5036370;28;20029;-68
2022/01/31 11:33:39;;;;;;;18.60;3.63;;;6.70;75.80;;;;;;5038476;28;20579;-70
2022/01/31 11:36:05;;;;;;;16.73;3.40;;;6.70;75.50;;;;;;5034570;28;20044;-70
2022/01/31 11:38:33;;;;;;;13.13;3.75;;;6.60;76.20;;;;;;5038279;28;20477;-69
2022/01/31 11:41:05;;;;;;;15.57;4.20;;;6.60;77.70;;;;;;5042075;28;20029;-66
2022/01/31 11:43:32;;;;;;;7.25;2.85;;;6.70;77.70;;;;;;5035233;28;20473;-70
2022/01/31 11:46:00;;;;;;;12.48;2.65;;;6.80;76.70;;;;;;5040261;28;20024;-74
2022/01/31 11:48:29;;;;;;;15.90;3.03;;;6.90;75.50;;;;;;5034126;28;20065;-67
2022/01/31 11:50:58;;;;;;;9.93;2.53;;;6.90;77.00;;;;;;5041011;28;20393;-67
2022/01/31 11:53:37;;;;;;;12.25;2.97;;;6.90;78.20;;;;;;5035941;28;20421;-69
2022/01/31 11:56:26;;;;;;;16.33;3.42;;;6.90;77.80;;;;;;5040200;28;20028;-69
2022/01/31 11:58:54;;;;;;;12.38;3.00;;;6.80;78.10;;;;;;5037229;28;20140;-68
2022/01/31 12:01:21;;;;;;;12.18;3.47;;;6.80;75.10;;;;;;5036430;28;20037;-71
2022/01/31 12:03:56;;;;;;;16.30;3.35;;;6.80;77.90;;;;;;5038178;28;20036;-69
2022/01/31 12:06:25;;;;;;;18.42;3.50;;;6.70;79.60;;;;;;5038730;28;20037;-75
2022/01/31 12:08:52;;;;;;;12.82;3.60;;;6.70;79.60;;;;;;5045700;28;20032;-72
2022/01/31 12:11:25;;;;;;;13.13;3.05;;;6.70;79.50;;;;;;5040679;28;20091;-78
2022/01/31 12:13:56;;;;;;;23.90;3.97;;;6.70;79.50;;;;;;5042811;28;20029;-74
2022/01/31 12:19:45;;;;;;;12.60;3.85;;;6.80;79.00;;;;;;5036812;28;20083;-75
2022/01/31 12:22:41;;;;;;;12.77;3.60;;;6.90;78.50;;;;;;5035710;28;20045;-74
2022/01/31 12:25:28;;;;;;;14.45;3.45;;;6.80;77.90;;;;;;5039988;28;20021;-72
2022/01/31 12:27:56;;;;;;;15.77;3.78;;;6.80;79.40;;;;;;5035248;28;20028;-75
2022/01/31 12:30:40;;;;;;;13.15;2.97;;;6.80;78.80;;;;;;5038027;28;20049;-68
2022/01/31 12:33:41;;;;;;;11.82;2.78;;;6.90;79.00;;;;;;5038280;28;20036;-71
2022/01/31 12:36:07;;;;;;;14.77;2.97;;;6.90;78.90;;;;;;5037258;28;20025;-72
2022/01/31 12:38:33;;;;;;;13.07;3.30;;;6.90;79.20;;;;;;5036168;28;20059;-71
2022/01/31 12:41:05;;;;;;;16.35;3.30;;;7.00;78.90;;;;;;5039938;28;20025;-78
2022/01/31 12:43:56;;;;;;;13.98;4.53;;;7.10;77.70;;;;;;5042273;28;20848;-77
2022/01/31 12:46:17;;;;;;;12.98;3.25;;;7.00;78.10;;;;;;5042191;28;20036;-77
2022/01/31 12:49:03;;;;;;;10.27;3.03;;;7.00;78.50;;;;;;5042348;28;20043;-77
2022/01/31 12:51:29;;;;;;;15.55;3.35;;;7.00;78.00;;;;;;5039584;28;20068;-76
2022/01/31 12:53:55;;;;;;;14.00;3.13;;;7.10;77.70;;;;;;5041106;28;20112;-66
2022/01/31 12:56:26;;;;;;;9.52;2.83;;;7.10;77.70;;;;;;5033881;28;20136;-75
2022/01/31 12:58:57;;;;;;;14.00;3.58;;;7.20;77.20;;;;;;5034417;28;20036;-74
2022/01/31 13:01:27;;;;;;;16.25;3.22;;;7.30;76.90;;;;;;5031825;28;20037;-72
2022/01/31 13:04:14;;;;;;;17.25;3.30;;;7.40;76.20;;;;;;5040580;28;20102;-75
2022/01/31 13:06:51;;;;;;;17.17;5.47;;;7.50;75.40;;;;;;5036696;28;20045;-74
2022/01/31 13:09:26;;;;;;;16.98;4.35;;;7.50;75.30;;;;;;5039219;28;20039;-69
2022/01/31 13:11:54;;;;;;;13.45;3.92;;;7.50;75.40;;;;;;5038889;28;20041;-70
2022/01/31 13:14:24;;;;;;;16.88;3.90;;;7.50;76.10;;;;;;5033735;28;20055;-73
2022/01/31 13:17:01;;;;;;;12.77;6.85;;;7.40;76.50;;;;;;5038440;28;20033;-71
2022/01/31 13:19:31;;;;;;;12.45;5.95;;;7.20;77.40;;;;;;5034992;28;20059;-71
2022/01/31 13:21:59;;;;;;;12.40;3.95;;;7.10;78.60;;;;;;5040429;28;20064;-72
2022/01/31 13:24:40;;;;;;;11.43;3.13;;;7.10;78.40;;;;;;5033264;28;20038;-73
2022/01/31 13:27:09;;;;;;;11.30;3.40;;;7.10;77.90;;;;;;5038219;28;20060;-73
2022/01/31 13:29:36;;;;;;;14.60;3.80;;;6.90;79.00;;;;;;5033899;28;20555;-73